sensor_id;sensor_type;location;lat;lon;timestamp;P1;durP1;ratioP1;P2;durP2;ratioP2
15340;SDS011;7770;52.158;5.372;2023-07-02T00:02:18;12.20;;;8.20;;
15340;SDS011;7770;52.158;5.372;2023-07-02T00:05:04;12.87;;;8.70;;
15340;SDS011;7770;52.158;5.372;2023-07-02T00:07:52;9.20;;;8.30;;
15340;SDS011;7770;52.158;5.372;2023-07-02T00:10:38;13.47;;;9.13;;
15340;SDS011;7770;52.158;5.372;2023-07-02T00:13:23;16.83;;;9.63;;
15340;SDS011;7770;52.158;5.372;2023-07-02T00:16:09;13.40;;;8.80;;
15340;SDS011;7770;52.158;5.372;2023-07-02T00:18:55;12.63;;;9.37;;
15340;SDS011;7770;52.158;5.372;2023-07-02T00:21:42;12.93;;;8.93;;
15340;SDS011;7770;52.158;5.372;2023-07-02T00:24:28;13.03;;;8.97;;
15340;SDS011;7770;52.158;5.372;2023-07-02T00:27:14;15.53;;;9.80;;
15340;SDS011;7770;52.158;5.372;2023-07-02T00:30:00;12.63;;;8.67;;
15340;SDS011;7770;52.158;5.372;2023-07-02T00:32:46;11.20;;;8.77;;
15340;SDS011;7770;52.158;5.372;2023-07-02T00:35:32;13.50;;;9.23;;
15340;SDS011;7770;52.158;5.372;2023-07-02T00:38:18;13.40;;;9.00;;
15340;SDS011;7770;52.158;5.372;2023-07-02T00:41:04;13.77;;;9.40;;
15340;SDS011;7770;52.158;5.372;2023-07-02T00:43:50;15.37;;;10.00;;
15340;SDS011;7770;52.158;5.372;2023-07-02T00:46:39;14.03;;;9.03;;
15340;SDS011;7770;52.158;5.372;2023-07-02T00:49:25;15.60;;;9.73;;
15340;SDS011;7770;52.158;5.372;2023-07-02T00:52:12;15.03;;;9.67;;
15340;SDS011;7770;52.158;5.372;2023-07-02T00:54:58;15.13;;;9.50;;
15340;SDS011;7770;52.158;5.372;2023-07-02T00:57:44;17.73;;;9.30;;
15340;SDS011;7770;52.158;5.372;2023-07-02T01:00:31;14.60;;;10.03;;
15340;SDS011;7770;52.158;5.372;2023-07-02T01:03:17;17.57;;;9.80;;
15340;SDS011;7770;52.158;5.372;2023-07-02T01:06:03;16.63;;;10.80;;
15340;SDS011;7770;52.158;5.372;2023-07-02T01:08:49;15.07;;;10.00;;
15340;SDS011;7770;52.158;5.372;2023-07-02T01:11:41;15.80;;;10.43;;
15340;SDS011;7770;52.158;5.372;2023-07-02T01:14:33;17.83;;;10.33;;
15340;SDS011;7770;52.158;5.372;2023-07-02T01:17:27;18.50;;;10.10;;
15340;SDS011;7770;52.158;5.372;2023-07-02T01:20:22;17.73;;;11.13;;
15340;SDS011;7770;52.158;5.372;2023-07-02T01:23:10;17.87;;;10.67;;
15340;SDS011;7770;52.158;5.372;2023-07-02T01:25:57;18.30;;;10.70;;
15340;SDS011;7770;52.158;5.372;2023-07-02T01:28:44;19.37;;;11.47;;
15340;SDS011;7770;52.158;5.372;2023-07-02T01:31:30;18.07;;;10.80;;
15340;SDS011;7770;52.158;5.372;2023-07-02T01:34:17;20.73;;;11.53;;
15340;SDS011;7770;52.158;5.372;2023-07-02T01:37:03;23.70;;;11.07;;
15340;SDS011;7770;52.158;5.372;2023-07-02T01:39:50;23.30;;;10.63;;
15340;SDS011;7770;52.158;5.372;2023-07-02T01:42:36;19.20;;;11.10;;
15340;SDS011;7770;52.158;5.372;2023-07-02T01:45:23;17.17;;;11.10;;
15340;SDS011;7770;52.158;5.372;2023-07-02T01:48:09;18.33;;;12.13;;
15340;SDS011;7770;52.158;5.372;2023-07-02T01:50:55;23.93;;;11.53;;
15340;SDS011;7770;52.158;5.372;2023-07-02T01:53:41;17.70;;;11.57;;
15340;SDS011;7770;52.158;5.372;2023-07-02T01:56:27;20.07;;;11.63;;
15340;SDS011;7770;52.158;5.372;2023-07-02T01:59:13;18.20;;;11.63;;
15340;SDS011;7770;52.158;5.372;2023-07-02T02:02:00;21.17;;;12.07;;
15340;SDS011;7770;52.158;5.372;2023-07-02T02:04:46;21.03;;;12.17;;
15340;SDS011;7770;52.158;5.372;2023-07-02T02:07:32;21.03;;;11.80;;
15340;SDS011;7770;52.158;5.372;2023-07-02T02:10:20;19.67;;;12.00;;
15340;SDS011;7770;52.158;5.372;2023-07-02T02:13:06;19.93;;;11.67;;
15340;SDS011;7770;52.158;5.372;2023-07-02T02:15:54;23.23;;;12.47;;
15340;SDS011;7770;52.158;5.372;2023-07-02T02:18:40;21.40;;;12.10;;
15340;SDS011;7770;52.158;5.372;2023-07-02T02:21:26;19.13;;;11.53;;
15340;SDS011;7770;52.158;5.372;2023-07-02T02:24:12;24.40;;;12.87;;
15340;SDS011;7770;52.158;5.372;2023-07-02T02:26:59;21.63;;;12.57;;
15340;SDS011;7770;52.158;5.372;2023-07-02T02:29:45;22.67;;;12.07;;
15340;SDS011;7770;52.158;5.372;2023-07-02T02:32:31;23.97;;;12.70;;
15340;SDS011;7770;52.158;5.372;2023-07-02T02:35:17;18.93;;;12.57;;
15340;SDS011;7770;52.158;5.372;2023-07-02T02:38:03;21.03;;;12.27;;
15340;SDS011;7770;52.158;5.372;2023-07-02T02:40:50;22.27;;;12.40;;
15340;SDS011;7770;52.158;5.372;2023-07-02T02:43:36;22.27;;;12.40;;
15340;SDS011;7770;52.158;5.372;2023-07-02T02:46:22;26.70;;;12.17;;
15340;SDS011;7770;52.158;5.372;2023-07-02T02:49:08;21.60;;;12.17;;
15340;SDS011;7770;52.158;5.372;2023-07-02T02:51:54;22.77;;;12.37;;
15340;SDS011;7770;52.158;5.372;2023-07-02T02:54:40;22.27;;;12.73;;
15340;SDS011;7770;52.158;5.372;2023-07-02T02:57:26;23.60;;;12.50;;
15340;SDS011;7770;52.158;5.372;2023-07-02T03:00:12;23.57;;;12.30;;
15340;SDS011;7770;52.158;5.372;2023-07-02T03:02:59;23.37;;;12.60;;
15340;SDS011;7770;52.158;5.372;2023-07-02T03:05:45;24.40;;;12.40;;
15340;SDS011;7770;52.158;5.372;2023-07-02T03:08:33;21.93;;;12.53;;
15340;SDS011;7770;52.158;5.372;2023-07-02T03:11:19;23.17;;;12.80;;
15340;SDS011;7770;52.158;5.372;2023-07-02T03:14:05;20.70;;;12.50;;
15340;SDS011;7770;52.158;5.372;2023-07-02T03:16:51;24.77;;;12.00;;
15340;SDS011;7770;52.158;5.372;2023-07-02T03:19:37;24.37;;;12.37;;
15340;SDS011;7770;52.158;5.372;2023-07-02T03:22:23;20.57;;;12.23;;
15340;SDS011;7770;52.158;5.372;2023-07-02T03:25:09;26.87;;;12.43;;
15340;SDS011;7770;52.158;5.372;2023-07-02T03:27:55;20.97;;;12.60;;
15340;SDS011;7770;52.158;5.372;2023-07-02T03:30:41;23.50;;;11.97;;
15340;SDS011;7770;52.158;5.372;2023-07-02T03:33:27;21.10;;;11.90;;
15340;SDS011;7770;52.158;5.372;2023-07-02T03:36:13;22.60;;;12.43;;
15340;SDS011;7770;52.158;5.372;2023-07-02T03:38:59;24.63;;;13.17;;
15340;SDS011;7770;52.158;5.372;2023-07-02T03:41:45;25.93;;;14.03;;
15340;SDS011;7770;52.158;5.372;2023-07-02T03:44:31;23.23;;;12.60;;
15340;SDS011;7770;52.158;5.372;2023-07-02T03:47:17;25.90;;;12.80;;
15340;SDS011;7770;52.158;5.372;2023-07-02T03:50:04;24.83;;;12.20;;
15340;SDS011;7770;52.158;5.372;2023-07-02T03:52:51;22.37;;;12.30;;
15340;SDS011;7770;52.158;5.372;2023-07-02T03:55:37;24.40;;;12.33;;
15340;SDS011;7770;52.158;5.372;2023-07-02T03:58:24;24.93;;;11.63;;
15340;SDS011;7770;52.158;5.372;2023-07-02T04:01:11;22.57;;;12.40;;
15340;SDS011;7770;52.158;5.372;2023-07-02T04:03:57;21.27;;;11.80;;
15340;SDS011;7770;52.158;5.372;2023-07-02T04:06:43;23.47;;;12.27;;
15340;SDS011;7770;52.158;5.372;2023-07-02T04:09:29;18.33;;;11.43;;
15340;SDS011;7770;52.158;5.372;2023-07-02T04:12:18;22.17;;;12.10;;
15340;SDS011;7770;52.158;5.372;2023-07-02T04:15:04;22.37;;;12.53;;
15340;SDS011;7770;52.158;5.372;2023-07-02T04:17:51;24.20;;;13.27;;
15340;SDS011;7770;52.158;5.372;2023-07-02T04:20:37;26.33;;;13.13;;
15340;SDS011;7770;52.158;5.372;2023-07-02T04:23:24;22.17;;;11.77;;
15340;SDS011;7770;52.158;5.372;2023-07-02T04:26:10;23.03;;;12.97;;
15340;SDS011;7770;52.158;5.372;2023-07-02T04:28:57;21.60;;;12.07;;
15340;SDS011;7770;52.158;5.372;2023-07-02T04:31:44;22.43;;;12.53;;
15340;SDS011;7770;52.158;5.372;2023-07-02T04:34:30;24.40;;;12.87;;
15340;SDS011;7770;52.158;5.372;2023-07-02T04:37:16;27.17;;;11.90;;
15340;SDS011;7770;52.158;5.372;2023-07-02T04:40:02;23.83;;;12.57;;
15340;SDS011;7770;52.158;5.372;2023-07-02T04:42:52;25.03;;;11.93;;
15340;SDS011;7770;52.158;5.372;2023-07-02T04:45:42;20.27;;;11.80;;
15340;SDS011;7770;52.158;5.372;2023-07-02T04:48:29;24.70;;;12.83;;
15340;SDS011;7770;52.158;5.372;2023-07-02T04:51:15;22.00;;;12.00;;
15340;SDS011;7770;52.158;5.372;2023-07-02T04:54:01;22.30;;;12.60;;
15340;SDS011;7770;52.158;5.372;2023-07-02T04:56:47;25.50;;;12.07;;
15340;SDS011;7770;52.158;5.372;2023-07-02T04:59:34;22.83;;;11.63;;
15340;SDS011;7770;52.158;5.372;2023-07-02T05:02:20;25.87;;;12.87;;
15340;SDS011;7770;52.158;5.372;2023-07-02T05:05:06;20.57;;;11.33;;
15340;SDS011;7770;52.158;5.372;2023-07-02T05:07:53;21.10;;;11.63;;
15340;SDS011;7770;52.158;5.372;2023-07-02T05:10:40;21.33;;;11.17;;
15340;SDS011;7770;52.158;5.372;2023-07-02T05:13:26;20.83;;;11.20;;
15340;SDS011;7770;52.158;5.372;2023-07-02T05:16:12;23.47;;;11.80;;
15340;SDS011;7770;52.158;5.372;2023-07-02T05:18:58;19.77;;;12.50;;
15340;SDS011;7770;52.158;5.372;2023-07-02T05:21:44;23.17;;;12.63;;
15340;SDS011;7770;52.158;5.372;2023-07-02T05:24:30;25.13;;;12.03;;
15340;SDS011;7770;52.158;5.372;2023-07-02T05:27:16;20.13;;;11.53;;
15340;SDS011;7770;52.158;5.372;2023-07-02T05:30:02;24.20;;;11.10;;
15340;SDS011;7770;52.158;5.372;2023-07-02T05:32:49;19.93;;;11.47;;
15340;SDS011;7770;52.158;5.372;2023-07-02T05:35:35;20.53;;;11.43;;
15340;SDS011;7770;52.158;5.372;2023-07-02T05:38:21;20.97;;;11.67;;
15340;SDS011;7770;52.158;5.372;2023-07-02T05:41:07;20.07;;;11.77;;
15340;SDS011;7770;52.158;5.372;2023-07-02T05:43:53;18.93;;;10.93;;
15340;SDS011;7770;52.158;5.372;2023-07-02T05:46:39;18.77;;;10.97;;
15340;SDS011;7770;52.158;5.372;2023-07-02T05:49:25;16.70;;;10.80;;
15340;SDS011;7770;52.158;5.372;2023-07-02T05:52:11;18.57;;;11.77;;
15340;SDS011;7770;52.158;5.372;2023-07-02T05:54:57;19.67;;;11.23;;
15340;SDS011;7770;52.158;5.372;2023-07-02T05:57:43;16.47;;;10.80;;
15340;SDS011;7770;52.158;5.372;2023-07-02T06:00:29;15.93;;;10.30;;
15340;SDS011;7770;52.158;5.372;2023-07-02T06:03:16;16.13;;;10.23;;
15340;SDS011;7770;52.158;5.372;2023-07-02T06:06:05;15.80;;;10.50;;
15340;SDS011;7770;52.158;5.372;2023-07-02T06:08:51;16.93;;;9.93;;
15340;SDS011;7770;52.158;5.372;2023-07-02T06:11:37;15.10;;;9.67;;
15340;SDS011;7770;52.158;5.372;2023-07-02T06:14:23;13.37;;;9.63;;
15340;SDS011;7770;52.158;5.372;2023-07-02T06:17:10;16.80;;;10.50;;
15340;SDS011;7770;52.158;5.372;2023-07-02T06:19:57;16.63;;;9.30;;
15340;SDS011;7770;52.158;5.372;2023-07-02T06:22:43;13.53;;;9.33;;
15340;SDS011;7770;52.158;5.372;2023-07-02T06:25:29;16.13;;;10.30;;
15340;SDS011;7770;52.158;5.372;2023-07-02T06:28:15;14.37;;;9.20;;
15340;SDS011;7770;52.158;5.372;2023-07-02T06:31:01;18.63;;;9.67;;
15340;SDS011;7770;52.158;5.372;2023-07-02T06:33:47;15.40;;;10.13;;
15340;SDS011;7770;52.158;5.372;2023-07-02T06:36:33;16.30;;;9.67;;
15340;SDS011;7770;52.158;5.372;2023-07-02T06:39:19;14.03;;;8.93;;
15340;SDS011;7770;52.158;5.372;2023-07-02T06:42:06;18.03;;;9.87;;
15340;SDS011;7770;52.158;5.372;2023-07-02T06:44:52;15.27;;;9.40;;
15340;SDS011;7770;52.158;5.372;2023-07-02T06:47:38;21.20;;;9.83;;
15340;SDS011;7770;52.158;5.372;2023-07-02T06:50:24;17.00;;;8.90;;
15340;SDS011;7770;52.158;5.372;2023-07-02T06:53:10;17.80;;;8.13;;
15340;SDS011;7770;52.158;5.372;2023-07-02T06:55:56;14.87;;;8.77;;
15340;SDS011;7770;52.158;5.372;2023-07-02T06:58:42;16.83;;;8.60;;
15340;SDS011;7770;52.158;5.372;2023-07-02T07:01:28;12.30;;;8.20;;
15340;SDS011;7770;52.158;5.372;2023-07-02T07:04:14;15.17;;;8.20;;
15340;SDS011;7770;52.158;5.372;2023-07-02T07:07:01;16.83;;;9.63;;
15340;SDS011;7770;52.158;5.372;2023-07-02T07:09:51;15.00;;;9.07;;
15340;SDS011;7770;52.158;5.372;2023-07-02T07:12:37;20.00;;;8.53;;
15340;SDS011;7770;52.158;5.372;2023-07-02T07:15:24;13.47;;;8.30;;
15340;SDS011;7770;52.158;5.372;2023-07-02T07:18:11;12.90;;;8.07;;
15340;SDS011;7770;52.158;5.372;2023-07-02T07:20:58;12.93;;;8.40;;
15340;SDS011;7770;52.158;5.372;2023-07-02T07:23:45;14.43;;;8.17;;
15340;SDS011;7770;52.158;5.372;2023-07-02T07:26:32;11.87;;;7.73;;
15340;SDS011;7770;52.158;5.372;2023-07-02T07:29:18;11.43;;;7.60;;
15340;SDS011;7770;52.158;5.372;2023-07-02T07:32:04;9.73;;;7.40;;
15340;SDS011;7770;52.158;5.372;2023-07-02T07:34:51;12.47;;;7.97;;
15340;SDS011;7770;52.158;5.372;2023-07-02T07:37:37;13.50;;;7.10;;
15340;SDS011;7770;52.158;5.372;2023-07-02T07:40:23;11.37;;;6.80;;
15340;SDS011;7770;52.158;5.372;2023-07-02T07:43:09;11.52;;;6.93;;
15340;SDS011;7770;52.158;5.372;2023-07-02T07:45:55;8.98;;;6.85;;
15340;SDS011;7770;52.158;5.372;2023-07-02T07:48:41;11.70;;;7.32;;
15340;SDS011;7770;52.158;5.372;2023-07-02T07:51:27;10.45;;;6.90;;
15340;SDS011;7770;52.158;5.372;2023-07-02T07:54:13;9.27;;;7.00;;
15340;SDS011;7770;52.158;5.372;2023-07-02T07:56:59;11.43;;;7.03;;
15340;SDS011;7770;52.158;5.372;2023-07-02T07:59:45;10.57;;;7.47;;
15340;SDS011;7770;52.158;5.372;2023-07-02T08:02:31;13.30;;;7.78;;
15340;SDS011;7770;52.158;5.372;2023-07-02T08:05:17;9.38;;;7.30;;
15340;SDS011;7770;52.158;5.372;2023-07-02T08:08:03;12.10;;;7.45;;
15340;SDS011;7770;52.158;5.372;2023-07-02T08:10:49;10.35;;;7.40;;
15340;SDS011;7770;52.158;5.372;2023-07-02T08:13:35;12.33;;;7.67;;
15340;SDS011;7770;52.158;5.372;2023-07-02T08:16:21;10.77;;;7.50;;
15340;SDS011;7770;52.158;5.372;2023-07-02T08:19:07;11.67;;;7.67;;
15340;SDS011;7770;52.158;5.372;2023-07-02T08:21:53;10.73;;;7.57;;
15340;SDS011;7770;52.158;5.372;2023-07-02T08:24:39;11.13;;;7.77;;
15340;SDS011;7770;52.158;5.372;2023-07-02T08:27:25;9.90;;;8.03;;
15340;SDS011;7770;52.158;5.372;2023-07-02T08:30:11;11.60;;;7.70;;
15340;SDS011;7770;52.158;5.372;2023-07-02T08:32:57;10.57;;;7.63;;
15340;SDS011;7770;52.158;5.372;2023-07-02T08:35:43;10.73;;;7.25;;
15340;SDS011;7770;52.158;5.372;2023-07-02T08:38:29;11.77;;;7.67;;
15340;SDS011;7770;52.158;5.372;2023-07-02T08:41:15;10.03;;;7.60;;
15340;SDS011;7770;52.158;5.372;2023-07-02T08:44:02;12.57;;;7.27;;
15340;SDS011;7770;52.158;5.372;2023-07-02T08:46:49;11.70;;;7.20;;
15340;SDS011;7770;52.158;5.372;2023-07-02T08:49:41;9.50;;;7.63;;
15340;SDS011;7770;52.158;5.372;2023-07-02T08:52:27;9.10;;;6.90;;
15340;SDS011;7770;52.158;5.372;2023-07-02T08:55:13;10.80;;;6.82;;
15340;SDS011;7770;52.158;5.372;2023-07-02T08:57:59;10.52;;;7.22;;
15340;SDS011;7770;52.158;5.372;2023-07-02T09:01:04;11.20;;;8.13;;
15340;SDS011;7770;52.158;5.372;2023-07-02T09:03:58;11.20;;;7.50;;
15340;SDS011;7770;52.158;5.372;2023-07-02T09:06:46;13.35;;;8.15;;
15340;SDS011;7770;52.158;5.372;2023-07-02T09:09:33;10.48;;;7.35;;
15340;SDS011;7770;52.158;5.372;2023-07-02T09:12:34;11.05;;;7.13;;
15340;SDS011;7770;52.158;5.372;2023-07-02T09:15:20;10.50;;;6.30;;
15340;SDS011;7770;52.158;5.372;2023-07-02T09:18:16;11.82;;;6.97;;
15340;SDS011;7770;52.158;5.372;2023-07-02T09:21:11;9.90;;;7.32;;
15340;SDS011;7770;52.158;5.372;2023-07-02T09:23:57;8.95;;;6.35;;
15340;SDS011;7770;52.158;5.372;2023-07-02T09:26:44;9.13;;;6.65;;
15340;SDS011;7770;52.158;5.372;2023-07-02T09:29:37;9.35;;;6.10;;
15340;SDS011;7770;52.158;5.372;2023-07-02T09:32:23;8.77;;;6.28;;
15340;SDS011;7770;52.158;5.372;2023-07-02T09:35:11;8.35;;;5.88;;
15340;SDS011;7770;52.158;5.372;2023-07-02T09:37:58;7.68;;;5.72;;
15340;SDS011;7770;52.158;5.372;2023-07-02T09:40:45;9.20;;;5.85;;
15340;SDS011;7770;52.158;5.372;2023-07-02T09:43:34;9.27;;;5.90;;
15340;SDS011;7770;52.158;5.372;2023-07-02T09:46:21;11.35;;;5.53;;
15340;SDS011;7770;52.158;5.372;2023-07-02T09:49:07;7.88;;;5.63;;
15340;SDS011;7770;52.158;5.372;2023-07-02T09:52:03;8.55;;;5.68;;
15340;SDS011;7770;52.158;5.372;2023-07-02T09:54:54;8.70;;;5.35;;
15340;SDS011;7770;52.158;5.372;2023-07-02T09:57:40;8.45;;;5.78;;
15340;SDS011;7770;52.158;5.372;2023-07-02T10:00:29;7.07;;;4.97;;
15340;SDS011;7770;52.158;5.372;2023-07-02T10:03:15;7.17;;;5.20;;
15340;SDS011;7770;52.158;5.372;2023-07-02T10:06:04;8.77;;;5.50;;
15340;SDS011;7770;52.158;5.372;2023-07-02T10:08:52;8.07;;;5.00;;
15340;SDS011;7770;52.158;5.372;2023-07-02T10:11:42;4.53;;;4.10;;
15340;SDS011;7770;52.158;5.372;2023-07-02T10:14:41;6.05;;;4.50;;
15340;SDS011;7770;52.158;5.372;2023-07-02T10:17:29;7.85;;;4.88;;
15340;SDS011;7770;52.158;5.372;2023-07-02T10:20:18;8.02;;;5.78;;
15340;SDS011;7770;52.158;5.372;2023-07-02T10:23:04;5.78;;;4.68;;
15340;SDS011;7770;52.158;5.372;2023-07-02T10:25:52;6.25;;;4.53;;
15340;SDS011;7770;52.158;5.372;2023-07-02T10:28:38;6.33;;;4.80;;
15340;SDS011;7770;52.158;5.372;2023-07-02T10:31:24;6.07;;;4.67;;
15340;SDS011;7770;52.158;5.372;2023-07-02T10:34:11;7.87;;;4.70;;
15340;SDS011;7770;52.158;5.372;2023-07-02T10:36:57;6.00;;;4.57;;
15340;SDS011;7770;52.158;5.372;2023-07-02T10:39:44;6.43;;;4.70;;
15340;SDS011;7770;52.158;5.372;2023-07-02T10:42:31;6.33;;;4.43;;
15340;SDS011;7770;52.158;5.372;2023-07-02T10:45:18;9.75;;;5.20;;
15340;SDS011;7770;52.158;5.372;2023-07-02T10:48:08;6.45;;;4.90;;
15340;SDS011;7770;52.158;5.372;2023-07-02T10:50:55;9.02;;;5.57;;
15340;SDS011;7770;52.158;5.372;2023-07-02T10:53:41;9.37;;;5.07;;
15340;SDS011;7770;52.158;5.372;2023-07-02T10:56:27;8.50;;;5.43;;
15340;SDS011;7770;52.158;5.372;2023-07-02T10:59:23;5.43;;;4.90;;
15340;SDS011;7770;52.158;5.372;2023-07-02T11:02:10;6.65;;;5.35;;
15340;SDS011;7770;52.158;5.372;2023-07-02T11:04:56;10.02;;;5.20;;
15340;SDS011;7770;52.158;5.372;2023-07-02T11:07:42;8.30;;;5.50;;
15340;SDS011;7770;52.158;5.372;2023-07-02T11:10:28;7.87;;;5.23;;
15340;SDS011;7770;52.158;5.372;2023-07-02T11:13:15;11.35;;;5.45;;
15340;SDS011;7770;52.158;5.372;2023-07-02T11:16:03;6.53;;;4.70;;
15340;SDS011;7770;52.158;5.372;2023-07-02T11:18:50;5.70;;;5.03;;
15340;SDS011;7770;52.158;5.372;2023-07-02T11:21:56;7.75;;;5.53;;
15340;SDS011;7770;52.158;5.372;2023-07-02T11:24:43;6.30;;;5.18;;
15340;SDS011;7770;52.158;5.372;2023-07-02T11:27:29;6.93;;;5.70;;
15340;SDS011;7770;52.158;5.372;2023-07-02T11:30:15;7.03;;;5.35;;
15340;SDS011;7770;52.158;5.372;2023-07-02T11:33:01;7.70;;;5.30;;
15340;SDS011;7770;52.158;5.372;2023-07-02T11:35:47;7.30;;;5.35;;
15340;SDS011;7770;52.158;5.372;2023-07-02T11:38:34;6.95;;;5.47;;
15340;SDS011;7770;52.158;5.372;2023-07-02T11:41:21;8.80;;;5.65;;
15340;SDS011;7770;52.158;5.372;2023-07-02T11:44:07;7.83;;;5.43;;
15340;SDS011;7770;52.158;5.372;2023-07-02T11:46:54;6.97;;;5.90;;
15340;SDS011;7770;52.158;5.372;2023-07-02T11:49:42;7.70;;;5.67;;
15340;SDS011;7770;52.158;5.372;2023-07-02T11:52:28;9.60;;;5.80;;
15340;SDS011;7770;52.158;5.372;2023-07-02T11:55:14;7.10;;;6.27;;
15340;SDS011;7770;52.158;5.372;2023-07-02T11:58:00;7.43;;;5.60;;
15340;SDS011;7770;52.158;5.372;2023-07-02T12:00:46;7.82;;;6.18;;
15340;SDS011;7770;52.158;5.372;2023-07-02T12:03:32;8.97;;;5.93;;
15340;SDS011;7770;52.158;5.372;2023-07-02T12:06:18;6.53;;;5.20;;
15340;SDS011;7770;52.158;5.372;2023-07-02T12:09:04;7.37;;;5.53;;
15340;SDS011;7770;52.158;5.372;2023-07-02T12:11:50;7.70;;;5.80;;
15340;SDS011;7770;52.158;5.372;2023-07-02T12:14:36;8.25;;;5.60;;
15340;SDS011;7770;52.158;5.372;2023-07-02T12:17:22;9.53;;;5.93;;
15340;SDS011;7770;52.158;5.372;2023-07-02T12:20:08;8.43;;;6.07;;
15340;SDS011;7770;52.158;5.372;2023-07-02T12:22:55;8.47;;;5.80;;
15340;SDS011;7770;52.158;5.372;2023-07-02T12:25:41;9.23;;;5.90;;
15340;SDS011;7770;52.158;5.372;2023-07-02T12:28:27;8.23;;;6.13;;
15340;SDS011;7770;52.158;5.372;2023-07-02T12:31:13;8.87;;;6.13;;
15340;SDS011;7770;52.158;5.372;2023-07-02T12:33:59;6.33;;;5.73;;
15340;SDS011;7770;52.158;5.372;2023-07-02T12:36:45;9.87;;;6.17;;
15340;SDS011;7770;52.158;5.372;2023-07-02T12:39:31;8.90;;;6.10;;
15340;SDS011;7770;52.158;5.372;2023-07-02T12:42:17;9.47;;;6.43;;
15340;SDS011;7770;52.158;5.372;2023-07-02T12:45:05;8.80;;;6.37;;
15340;SDS011;7770;52.158;5.372;2023-07-02T12:47:51;8.13;;;6.07;;
15340;SDS011;7770;52.158;5.372;2023-07-02T12:50:37;7.37;;;5.87;;
15340;SDS011;7770;52.158;5.372;2023-07-02T12:53:24;8.73;;;6.30;;
15340;SDS011;7770;52.158;5.372;2023-07-02T12:56:11;9.73;;;6.33;;
15340;SDS011;7770;52.158;5.372;2023-07-02T12:58:57;8.23;;;6.37;;
15340;SDS011;7770;52.158;5.372;2023-07-02T13:01:44;9.90;;;6.07;;
15340;SDS011;7770;52.158;5.372;2023-07-02T13:04:30;8.03;;;6.00;;
15340;SDS011;7770;52.158;5.372;2023-07-02T13:07:16;9.73;;;6.57;;
15340;SDS011;7770;52.158;5.372;2023-07-02T13:10:02;16.73;;;6.60;;
15340;SDS011;7770;52.158;5.372;2023-07-02T13:12:49;9.27;;;6.87;;
15340;SDS011;7770;52.158;5.372;2023-07-02T13:15:35;9.30;;;6.47;;
15340;SDS011;7770;52.158;5.372;2023-07-02T13:18:21;9.90;;;6.77;;
15340;SDS011;7770;52.158;5.372;2023-07-02T13:21:07;9.50;;;6.87;;
15340;SDS011;7770;52.158;5.372;2023-07-02T13:23:53;9.27;;;6.60;;
15340;SDS011;7770;52.158;5.372;2023-07-02T13:26:39;9.27;;;6.57;;
15340;SDS011;7770;52.158;5.372;2023-07-02T13:29:25;10.17;;;6.30;;
15340;SDS011;7770;52.158;5.372;2023-07-02T13:32:11;10.20;;;6.33;;
15340;SDS011;7770;52.158;5.372;2023-07-02T13:34:57;9.80;;;6.80;;
15340;SDS011;7770;52.158;5.372;2023-07-02T13:37:43;7.67;;;6.00;;
15340;SDS011;7770;52.158;5.372;2023-07-02T13:40:29;10.53;;;6.87;;
15340;SDS011;7770;52.158;5.372;2023-07-02T13:43:15;7.93;;;6.37;;
15340;SDS011;7770;52.158;5.372;2023-07-02T13:46:01;7.83;;;6.47;;
15340;SDS011;7770;52.158;5.372;2023-07-02T13:48:47;10.67;;;6.53;;
15340;SDS011;7770;52.158;5.372;2023-07-02T13:51:33;9.70;;;6.63;;
15340;SDS011;7770;52.158;5.372;2023-07-02T13:54:21;9.60;;;6.57;;
15340;SDS011;7770;52.158;5.372;2023-07-02T13:57:07;7.87;;;6.13;;
15340;SDS011;7770;52.158;5.372;2023-07-02T13:59:53;9.73;;;6.73;;
15340;SDS011;7770;52.158;5.372;2023-07-02T14:02:40;10.93;;;6.90;;
15340;SDS011;7770;52.158;5.372;2023-07-02T14:05:26;10.93;;;7.43;;
15340;SDS011;7770;52.158;5.372;2023-07-02T14:08:12;8.53;;;7.00;;
15340;SDS011;7770;52.158;5.372;2023-07-02T14:10:58;10.67;;;6.87;;
15340;SDS011;7770;52.158;5.372;2023-07-02T14:13:44;9.43;;;6.67;;
15340;SDS011;7770;52.158;5.372;2023-07-02T14:16:30;9.13;;;7.03;;
15340;SDS011;7770;52.158;5.372;2023-07-02T14:19:16;9.77;;;7.20;;
15340;SDS011;7770;52.158;5.372;2023-07-02T14:22:02;10.43;;;7.10;;
15340;SDS011;7770;52.158;5.372;2023-07-02T14:24:49;11.50;;;7.40;;
15340;SDS011;7770;52.158;5.372;2023-07-02T14:27:35;10.13;;;7.63;;
15340;SDS011;7770;52.158;5.372;2023-07-02T14:30:21;10.40;;;7.30;;
15340;SDS011;7770;52.158;5.372;2023-07-02T14:33:07;11.60;;;7.60;;
15340;SDS011;7770;52.158;5.372;2023-07-02T14:35:53;8.80;;;6.87;;
15340;SDS011;7770;52.158;5.372;2023-07-02T14:38:39;10.13;;;7.67;;
15340;SDS011;7770;52.158;5.372;2023-07-02T14:41:26;12.00;;;8.37;;
15340;SDS011;7770;52.158;5.372;2023-07-02T14:44:12;11.13;;;7.37;;
15340;SDS011;7770;52.158;5.372;2023-07-02T14:46:58;9.03;;;6.60;;
15340;SDS011;7770;52.158;5.372;2023-07-02T14:49:44;9.43;;;6.77;;
15340;SDS011;7770;52.158;5.372;2023-07-02T14:52:30;11.67;;;6.83;;
15340;SDS011;7770;52.158;5.372;2023-07-02T14:55:16;9.17;;;7.10;;
15340;SDS011;7770;52.158;5.372;2023-07-02T14:58:02;8.73;;;6.40;;
15340;SDS011;7770;52.158;5.372;2023-07-02T15:00:52;9.63;;;6.70;;
15340;SDS011;7770;52.158;5.372;2023-07-02T15:03:42;9.67;;;6.47;;
15340;SDS011;7770;52.158;5.372;2023-07-02T15:06:28;9.77;;;6.67;;
15340;SDS011;7770;52.158;5.372;2023-07-02T15:09:14;8.70;;;6.33;;
15340;SDS011;7770;52.158;5.372;2023-07-02T15:12:00;8.10;;;6.37;;
15340;SDS011;7770;52.158;5.372;2023-07-02T15:14:46;10.33;;;6.33;;
15340;SDS011;7770;52.158;5.372;2023-07-02T15:17:32;9.50;;;6.43;;
15340;SDS011;7770;52.158;5.372;2023-07-02T15:20:18;7.73;;;6.13;;
15340;SDS011;7770;52.158;5.372;2023-07-02T15:23:04;8.50;;;5.70;;
15340;SDS011;7770;52.158;5.372;2023-07-02T15:25:51;9.33;;;5.43;;
15340;SDS011;7770;52.158;5.372;2023-07-02T15:28:44;10.97;;;6.20;;
15340;SDS011;7770;52.158;5.372;2023-07-02T15:31:30;9.33;;;6.10;;
15340;SDS011;7770;52.158;5.372;2023-07-02T15:34:16;8.77;;;6.50;;
15340;SDS011;7770;52.158;5.372;2023-07-02T15:37:04;10.80;;;5.77;;
15340;SDS011;7770;52.158;5.372;2023-07-02T15:39:50;9.47;;;6.27;;
15340;SDS011;7770;52.158;5.372;2023-07-02T15:42:36;8.07;;;5.60;;
15340;SDS011;7770;52.158;5.372;2023-07-02T15:45:22;9.57;;;5.90;;
15340;SDS011;7770;52.158;5.372;2023-07-02T15:48:08;8.20;;;6.03;;
15340;SDS011;7770;52.158;5.372;2023-07-02T15:50:54;9.33;;;6.40;;
15340;SDS011;7770;52.158;5.372;2023-07-02T15:53:40;9.00;;;6.10;;
15340;SDS011;7770;52.158;5.372;2023-07-02T15:56:27;8.50;;;5.97;;
15340;SDS011;7770;52.158;5.372;2023-07-02T15:59:17;9.50;;;5.80;;
15340;SDS011;7770;52.158;5.372;2023-07-02T16:02:04;7.67;;;5.90;;
15340;SDS011;7770;52.158;5.372;2023-07-02T16:04:51;9.47;;;6.17;;
15340;SDS011;7770;52.158;5.372;2023-07-02T16:07:37;7.83;;;5.93;;
15340;SDS011;7770;52.158;5.372;2023-07-02T16:10:23;9.70;;;6.40;;
15340;SDS011;7770;52.158;5.372;2023-07-02T16:13:09;12.17;;;6.83;;
15340;SDS011;7770;52.158;5.372;2023-07-02T16:15:56;8.40;;;6.43;;
15340;SDS011;7770;52.158;5.372;2023-07-02T16:18:42;10.13;;;6.37;;
15340;SDS011;7770;52.158;5.372;2023-07-02T16:21:30;11.10;;;7.60;;
15340;SDS011;7770;52.158;5.372;2023-07-02T16:24:20;8.57;;;6.30;;
15340;SDS011;7770;52.158;5.372;2023-07-02T16:27:10;10.03;;;7.23;;
15340;SDS011;7770;52.158;5.372;2023-07-02T16:29:58;12.53;;;6.87;;
15340;SDS011;7770;52.158;5.372;2023-07-02T16:32:44;10.23;;;7.07;;
15340;SDS011;7770;52.158;5.372;2023-07-02T16:35:30;9.23;;;6.43;;
15340;SDS011;7770;52.158;5.372;2023-07-02T16:38:16;10.43;;;7.03;;
15340;SDS011;7770;52.158;5.372;2023-07-02T16:41:02;9.00;;;6.80;;
15340;SDS011;7770;52.158;5.372;2023-07-02T16:43:51;10.07;;;6.83;;
15340;SDS011;7770;52.158;5.372;2023-07-02T16:46:37;8.57;;;6.77;;